sensor_id;sensor_type;location;lat;lon;timestamp;P1;durP1;ratioP1;P2;durP2;ratioP2
82930;SDS011;72705;53.346;10.248;2024-01-30T00:00:48;12.57;;;6.50;;
82930;SDS011;72705;53.346;10.248;2024-01-30T00:03:13;13.00;;;7.35;;
82930;SDS011;72705;53.346;10.248;2024-01-30T00:05:41;11.25;;;7.10;;
82930;SDS011;72705;53.346;10.248;2024-01-30T00:08:06;11.73;;;7.50;;
82930;SDS011;72705;53.346;10.248;2024-01-30T00:10:32;15.73;;;7.47;;
82930;SDS011;72705;53.346;10.248;2024-01-30T00:13:03;14.68;;;7.70;;
82930;SDS011;72705;53.346;10.248;2024-01-30T00:15:30;12.88;;;7.75;;
82930;SDS011;72705;53.346;10.248;2024-01-30T00:17:55;15.27;;;7.07;;
82930;SDS011;72705;53.346;10.248;2024-01-30T00:20:21;11.60;;;7.13;;
82930;SDS011;72705;53.346;10.248;2024-01-30T00:25:17;13.25;;;7.75;;
82930;SDS011;72705;53.346;10.248;2024-01-30T00:27:42;16.02;;;8.35;;
82930;SDS011;72705;53.346;10.248;2024-01-30T00:30:07;13.27;;;7.40;;
82930;SDS011;72705;53.346;10.248;2024-01-30T00:32:33;12.75;;;7.78;;
82930;SDS011;72705;53.346;10.248;2024-01-30T00:35:01;13.93;;;7.22;;
82930;SDS011;72705;53.346;10.248;2024-01-30T00:37:26;12.50;;;7.25;;
82930;SDS011;72705;53.346;10.248;2024-01-30T00:39:56;13.63;;;7.17;;
82930;SDS011;72705;53.346;10.248;2024-01-30T00:42:23;11.48;;;7.82;;
82930;SDS011;72705;53.346;10.248;2024-01-30T00:44:49;14.65;;;8.13;;
82930;SDS011;72705;53.346;10.248;2024-01-30T00:49:47;14.65;;;8.05;;
82930;SDS011;72705;53.346;10.248;2024-01-30T00:52:13;14.23;;;7.00;;
82930;SDS011;72705;53.346;10.248;2024-01-30T00:54:40;14.48;;;8.43;;
82930;SDS011;72705;53.346;10.248;2024-01-30T00:57:06;11.90;;;7.38;;
82930;SDS011;72705;53.346;10.248;2024-01-30T00:59:43;12.23;;;7.38;;
82930;SDS011;72705;53.346;10.248;2024-01-30T01:02:08;11.95;;;6.97;;
82930;SDS011;72705;53.346;10.248;2024-01-30T01:04:39;12.15;;;7.93;;
82930;SDS011;72705;53.346;10.248;2024-01-30T01:07:05;12.93;;;7.88;;
82930;SDS011;72705;53.346;10.248;2024-01-30T01:09:31;16.67;;;8.27;;
82930;SDS011;72705;53.346;10.248;2024-01-30T01:12:01;12.73;;;7.68;;
82930;SDS011;72705;53.346;10.248;2024-01-30T01:14:27;17.58;;;9.50;;
82930;SDS011;72705;53.346;10.248;2024-01-30T01:16:53;15.23;;;8.23;;
82930;SDS011;72705;53.346;10.248;2024-01-30T01:19:21;15.35;;;9.32;;
82930;SDS011;72705;53.346;10.248;2024-01-30T01:21:46;16.35;;;9.00;;
82930;SDS011;72705;53.346;10.248;2024-01-30T01:24:12;15.82;;;8.45;;
82930;SDS011;72705;53.346;10.248;2024-01-30T01:26:38;12.90;;;8.63;;
82930;SDS011;72705;53.346;10.248;2024-01-30T01:29:07;16.02;;;9.25;;
82930;SDS011;72705;53.346;10.248;2024-01-30T01:31:37;12.98;;;7.90;;
82930;SDS011;72705;53.346;10.248;2024-01-30T01:34:09;14.13;;;8.00;;
82930;SDS011;72705;53.346;10.248;2024-01-30T01:36:38;14.43;;;8.32;;
82930;SDS011;72705;53.346;10.248;2024-01-30T01:39:04;17.17;;;8.98;;
82930;SDS011;72705;53.346;10.248;2024-01-30T01:41:30;14.50;;;8.65;;
82930;SDS011;72705;53.346;10.248;2024-01-30T01:46:26;14.70;;;9.27;;
82930;SDS011;72705;53.346;10.248;2024-01-30T01:48:52;16.42;;;9.25;;
82930;SDS011;72705;53.346;10.248;2024-01-30T01:51:19;14.15;;;8.63;;
82930;SDS011;72705;53.346;10.248;2024-01-30T01:53:45;17.23;;;9.77;;
82930;SDS011;72705;53.346;10.248;2024-01-30T01:56:11;15.88;;;8.60;;
82930;SDS011;72705;53.346;10.248;2024-01-30T01:58:38;15.18;;;8.93;;
82930;SDS011;72705;53.346;10.248;2024-01-30T02:01:05;16.80;;;9.23;;
82930;SDS011;72705;53.346;10.248;2024-01-30T02:03:30;18.60;;;9.70;;
82930;SDS011;72705;53.346;10.248;2024-01-30T02:06:08;15.33;;;8.63;;
82930;SDS011;72705;53.346;10.248;2024-01-30T02:08:43;13.45;;;8.25;;
82930;SDS011;72705;53.346;10.248;2024-01-30T02:11:10;13.70;;;8.95;;
82930;SDS011;72705;53.346;10.248;2024-01-30T02:13:36;16.48;;;9.27;;
82930;SDS011;72705;53.346;10.248;2024-01-30T02:16:02;16.23;;;9.70;;
82930;SDS011;72705;53.346;10.248;2024-01-30T02:18:28;18.08;;;9.27;;
82930;SDS011;72705;53.346;10.248;2024-01-30T02:21:04;18.30;;;9.75;;
82930;SDS011;72705;53.346;10.248;2024-01-30T02:23:31;14.68;;;9.40;;
82930;SDS011;72705;53.346;10.248;2024-01-30T02:26:01;17.50;;;9.43;;
82930;SDS011;72705;53.346;10.248;2024-01-30T02:28:26;14.15;;;9.18;;
82930;SDS011;72705;53.346;10.248;2024-01-30T02:30:56;17.13;;;9.82;;
82930;SDS011;72705;53.346;10.248;2024-01-30T02:33:21;13.05;;;9.13;;
82930;SDS011;72705;53.346;10.248;2024-01-30T02:35:51;16.67;;;9.95;;
82930;SDS011;72705;53.346;10.248;2024-01-30T02:38:18;16.25;;;9.73;;
82930;SDS011;72705;53.346;10.248;2024-01-30T02:43:20;19.23;;;10.15;;
82930;SDS011;72705;53.346;10.248;2024-01-30T02:45:47;14.48;;;8.85;;
82930;SDS011;72705;53.346;10.248;2024-01-30T02:48:20;16.13;;;9.23;;
82930;SDS011;72705;53.346;10.248;2024-01-30T02:50:46;17.92;;;9.35;;
82930;SDS011;72705;53.346;10.248;2024-01-30T02:53:12;15.48;;;9.38;;
82930;SDS011;72705;53.346;10.248;2024-01-30T02:55:37;15.13;;;8.48;;
82930;SDS011;72705;53.346;10.248;2024-01-30T02:58:03;16.42;;;9.25;;
82930;SDS011;72705;53.346;10.248;2024-01-30T03:00:31;16.23;;;10.05;;
82930;SDS011;72705;53.346;10.248;2024-01-30T03:02:57;17.23;;;9.38;;
82930;SDS011;72705;53.346;10.248;2024-01-30T03:08:11;14.50;;;8.73;;
82930;SDS011;72705;53.346;10.248;2024-01-30T03:10:39;15.50;;;9.60;;
82930;SDS011;72705;53.346;10.248;2024-01-30T03:13:05;12.90;;;8.93;;
82930;SDS011;72705;53.346;10.248;2024-01-30T03:17:59;13.90;;;9.02;;
82930;SDS011;72705;53.346;10.248;2024-01-30T03:20:24;14.23;;;8.85;;
82930;SDS011;72705;53.346;10.248;2024-01-30T03:22:49;15.73;;;9.63;;
82930;SDS011;72705;53.346;10.248;2024-01-30T03:25:15;19.83;;;9.63;;
82930;SDS011;72705;53.346;10.248;2024-01-30T03:27:50;18.10;;;10.02;;
82930;SDS011;72705;53.346;10.248;2024-01-30T03:30:16;17.02;;;10.07;;
82930;SDS011;72705;53.346;10.248;2024-01-30T03:32:41;15.98;;;9.93;;
82930;SDS011;72705;53.346;10.248;2024-01-30T03:35:07;18.13;;;9.80;;
82930;SDS011;72705;53.346;10.248;2024-01-30T03:37:32;18.23;;;10.05;;
82930;SDS011;72705;53.346;10.248;2024-01-30T03:39:57;16.10;;;9.77;;
82930;SDS011;72705;53.346;10.248;2024-01-30T03:42:23;17.42;;;9.77;;
82930;SDS011;72705;53.346;10.248;2024-01-30T03:44:49;14.98;;;10.52;;
82930;SDS011;72705;53.346;10.248;2024-01-30T03:47:18;16.13;;;10.25;;
82930;SDS011;72705;53.346;10.248;2024-01-30T03:49:43;21.33;;;10.63;;
82930;SDS011;72705;53.346;10.248;2024-01-30T03:52:23;18.60;;;9.93;;
82930;SDS011;72705;53.346;10.248;2024-01-30T03:54:48;15.93;;;9.35;;
82930;SDS011;72705;53.346;10.248;2024-01-30T03:57:14;18.75;;;10.65;;
82930;SDS011;72705;53.346;10.248;2024-01-30T03:59:41;17.45;;;9.43;;
82930;SDS011;72705;53.346;10.248;2024-01-30T04:02:07;20.30;;;9.93;;
82930;SDS011;72705;53.346;10.248;2024-01-30T04:04:32;16.63;;;9.37;;
82930;SDS011;72705;53.346;10.248;2024-01-30T04:06:58;17.90;;;10.53;;
82930;SDS011;72705;53.346;10.248;2024-01-30T04:09:23;16.50;;;10.17;;
82930;SDS011;72705;53.346;10.248;2024-01-30T04:11:49;16.10;;;9.48;;
82930;SDS011;72705;53.346;10.248;2024-01-30T04:14:14;16.65;;;9.90;;
82930;SDS011;72705;53.346;10.248;2024-01-30T04:16:39;18.98;;;10.43;;
82930;SDS011;72705;53.346;10.248;2024-01-30T04:19:06;18.23;;;10.18;;
82930;SDS011;72705;53.346;10.248;2024-01-30T04:21:31;20.25;;;10.48;;
82930;SDS011;72705;53.346;10.248;2024-01-30T04:23:57;22.57;;;10.80;;
82930;SDS011;72705;53.346;10.248;2024-01-30T04:26:23;16.50;;;10.60;;
82930;SDS011;72705;53.346;10.248;2024-01-30T04:28:50;20.83;;;11.02;;
82930;SDS011;72705;53.346;10.248;2024-01-30T04:31:16;18.48;;;10.75;;
82930;SDS011;72705;53.346;10.248;2024-01-30T04:33:42;16.92;;;10.63;;
82930;SDS011;72705;53.346;10.248;2024-01-30T04:36:08;20.80;;;11.02;;
82930;SDS011;72705;53.346;10.248;2024-01-30T04:41:18;18.08;;;10.90;;
82930;SDS011;72705;53.346;10.248;2024-01-30T04:43:44;18.13;;;10.52;;
82930;SDS011;72705;53.346;10.248;2024-01-30T04:46:12;17.73;;;10.98;;
82930;SDS011;72705;53.346;10.248;2024-01-30T04:48:40;16.42;;;10.00;;
82930;SDS011;72705;53.346;10.248;2024-01-30T04:53:31;16.07;;;10.07;;
82930;SDS011;72705;53.346;10.248;2024-01-30T04:55:57;15.40;;;9.30;;
82930;SDS011;72705;53.346;10.248;2024-01-30T04:58:22;19.00;;;10.73;;
82930;SDS011;72705;53.346;10.248;2024-01-30T05:00:48;18.63;;;9.77;;
82930;SDS011;72705;53.346;10.248;2024-01-30T05:03:19;14.88;;;9.30;;
82930;SDS011;72705;53.346;10.248;2024-01-30T05:05:45;16.50;;;9.18;;
82930;SDS011;72705;53.346;10.248;2024-01-30T05:08:11;14.57;;;9.35;;
82930;SDS011;72705;53.346;10.248;2024-01-30T05:10:43;11.93;;;8.45;;
82930;SDS011;72705;53.346;10.248;2024-01-30T05:13:10;18.30;;;9.90;;
82930;SDS011;72705;53.346;10.248;2024-01-30T05:15:38;14.65;;;8.25;;
82930;SDS011;72705;53.346;10.248;2024-01-30T05:18:04;15.40;;;8.60;;
82930;SDS011;72705;53.346;10.248;2024-01-30T05:20:30;16.08;;;9.07;;
82930;SDS011;72705;53.346;10.248;2024-01-30T05:22:55;17.25;;;9.43;;
82930;SDS011;72705;53.346;10.248;2024-01-30T05:25:33;16.75;;;8.95;;
82930;SDS011;72705;53.346;10.248;2024-01-30T05:28:13;19.17;;;9.10;;
82930;SDS011;72705;53.346;10.248;2024-01-30T05:30:47;20.05;;;10.15;;
82930;SDS011;72705;53.346;10.248;2024-01-30T05:33:13;18.38;;;9.98;;
82930;SDS011;72705;53.346;10.248;2024-01-30T05:38:31;18.02;;;9.80;;
82930;SDS011;72705;53.346;10.248;2024-01-30T05:40:57;24.33;;;11.82;;
82930;SDS011;72705;53.346;10.248;2024-01-30T05:43:23;19.83;;;11.70;;
82930;SDS011;72705;53.346;10.248;2024-01-30T05:45:49;20.10;;;11.68;;
82930;SDS011;72705;53.346;10.248;2024-01-30T05:51:17;20.83;;;10.20;;
82930;SDS011;72705;53.346;10.248;2024-01-30T05:53:42;17.95;;;10.07;;
82930;SDS011;72705;53.346;10.248;2024-01-30T05:59:01;16.88;;;9.88;;
82930;SDS011;72705;53.346;10.248;2024-01-30T06:01:27;16.98;;;9.85;;
82930;SDS011;72705;53.346;10.248;2024-01-30T06:03:54;21.80;;;12.30;;
82930;SDS011;72705;53.346;10.248;2024-01-30T06:06:19;25.33;;;12.17;;
82930;SDS011;72705;53.346;10.248;2024-01-30T06:08:50;25.60;;;13.00;;
82930;SDS011;72705;53.346;10.248;2024-01-30T06:11:16;27.65;;;12.90;;
82930;SDS011;72705;53.346;10.248;2024-01-30T06:13:41;27.97;;;14.57;;
82930;SDS011;72705;53.346;10.248;2024-01-30T06:16:09;23.97;;;13.37;;
82930;SDS011;72705;53.346;10.248;2024-01-30T06:18:36;29.17;;;14.88;;
82930;SDS011;72705;53.346;10.248;2024-01-30T06:21:01;30.87;;;17.07;;
82930;SDS011;72705;53.346;10.248;2024-01-30T06:23:27;30.23;;;15.23;;
82930;SDS011;72705;53.346;10.248;2024-01-30T06:25:52;30.98;;;16.48;;
82930;SDS011;72705;53.346;10.248;2024-01-30T06:28:17;27.55;;;15.32;;
82930;SDS011;72705;53.346;10.248;2024-01-30T06:30:43;29.07;;;14.30;;
82930;SDS011;72705;53.346;10.248;2024-01-30T06:33:08;28.80;;;15.15;;
82930;SDS011;72705;53.346;10.248;2024-01-30T06:35:36;26.60;;;13.10;;
82930;SDS011;72705;53.346;10.248;2024-01-30T06:38:04;25.75;;;14.00;;
82930;SDS011;72705;53.346;10.248;2024-01-30T06:40:30;26.00;;;13.93;;
82930;SDS011;72705;53.346;10.248;2024-01-30T06:43:07;29.80;;;15.33;;
82930;SDS011;72705;53.346;10.248;2024-01-30T06:45:33;29.67;;;14.93;;
82930;SDS011;72705;53.346;10.248;2024-01-30T06:47:59;29.88;;;15.77;;
82930;SDS011;72705;53.346;10.248;2024-01-30T06:50:25;28.27;;;16.35;;
82930;SDS011;72705;53.346;10.248;2024-01-30T06:52:50;28.27;;;15.35;;
82930;SDS011;72705;53.346;10.248;2024-01-30T06:55:16;28.80;;;16.60;;
82930;SDS011;72705;53.346;10.248;2024-01-30T06:57:41;29.15;;;14.68;;
82930;SDS011;72705;53.346;10.248;2024-01-30T07:00:06;27.23;;;13.80;;
82930;SDS011;72705;53.346;10.248;2024-01-30T07:02:32;27.73;;;15.05;;
82930;SDS011;72705;53.346;10.248;2024-01-30T07:04:58;26.73;;;15.77;;
82930;SDS011;72705;53.346;10.248;2024-01-30T07:07:23;28.30;;;14.38;;
82930;SDS011;72705;53.346;10.248;2024-01-30T07:09:48;28.40;;;14.57;;
82930;SDS011;72705;53.346;10.248;2024-01-30T07:12:17;29.95;;;15.48;;
82930;SDS011;72705;53.346;10.248;2024-01-30T07:14:42;27.10;;;14.93;;
82930;SDS011;72705;53.346;10.248;2024-01-30T07:17:08;29.83;;;15.18;;
82930;SDS011;72705;53.346;10.248;2024-01-30T07:19:34;28.08;;;14.60;;
82930;SDS011;72705;53.346;10.248;2024-01-30T07:22:09;27.02;;;15.05;;
82930;SDS011;72705;53.346;10.248;2024-01-30T07:24:34;29.17;;;15.00;;
82930;SDS011;72705;53.346;10.248;2024-01-30T07:26:59;28.52;;;14.90;;
82930;SDS011;72705;53.346;10.248;2024-01-30T07:29:25;25.40;;;13.98;;
82930;SDS011;72705;53.346;10.248;2024-01-30T07:31:50;28.48;;;13.73;;
82930;SDS011;72705;53.346;10.248;2024-01-30T07:34:16;23.48;;;12.98;;
82930;SDS011;72705;53.346;10.248;2024-01-30T07:36:41;26.90;;;13.80;;
82930;SDS011;72705;53.346;10.248;2024-01-30T07:39:07;25.63;;;13.93;;
82930;SDS011;72705;53.346;10.248;2024-01-30T07:41:35;25.13;;;14.13;;
82930;SDS011;72705;53.346;10.248;2024-01-30T07:44:00;27.25;;;13.95;;
82930;SDS011;72705;53.346;10.248;2024-01-30T07:46:26;24.77;;;13.33;;
82930;SDS011;72705;53.346;10.248;2024-01-30T07:48:51;22.77;;;13.30;;
82930;SDS011;72705;53.346;10.248;2024-01-30T07:51:16;21.77;;;12.73;;
82930;SDS011;72705;53.346;10.248;2024-01-30T07:53:42;20.63;;;12.68;;
82930;SDS011;72705;53.346;10.248;2024-01-30T07:56:07;26.87;;;13.43;;
82930;SDS011;72705;53.346;10.248;2024-01-30T07:58:32;21.10;;;12.60;;
82930;SDS011;72705;53.346;10.248;2024-01-30T08:00:58;24.50;;;13.27;;
82930;SDS011;72705;53.346;10.248;2024-01-30T08:03:23;23.35;;;13.57;;
82930;SDS011;72705;53.346;10.248;2024-01-30T08:05:49;21.45;;;12.65;;
82930;SDS011;72705;53.346;10.248;2024-01-30T08:08:14;21.92;;;12.15;;
82930;SDS011;72705;53.346;10.248;2024-01-30T08:10:40;19.98;;;12.07;;
82930;SDS011;72705;53.346;10.248;2024-01-30T08:13:05;22.07;;;12.67;;
82930;SDS011;72705;53.346;10.248;2024-01-30T08:15:31;21.00;;;12.50;;
82930;SDS011;72705;53.346;10.248;2024-01-30T08:17:57;25.73;;;13.63;;
82930;SDS011;72705;53.346;10.248;2024-01-30T08:20:24;21.23;;;11.88;;
82930;SDS011;72705;53.346;10.248;2024-01-30T08:22:50;20.45;;;11.07;;
82930;SDS011;72705;53.346;10.248;2024-01-30T08:25:15;23.33;;;13.02;;
82930;SDS011;72705;53.346;10.248;2024-01-30T08:27:41;20.63;;;11.73;;
82930;SDS011;72705;53.346;10.248;2024-01-30T08:30:06;24.90;;;12.43;;
82930;SDS011;72705;53.346;10.248;2024-01-30T08:32:32;20.45;;;12.52;;
82930;SDS011;72705;53.346;10.248;2024-01-30T08:34:58;23.20;;;13.40;;
82930;SDS011;72705;53.346;10.248;2024-01-30T08:37:23;19.90;;;11.07;;
82930;SDS011;72705;53.346;10.248;2024-01-30T08:39:51;20.70;;;11.83;;
82930;SDS011;72705;53.346;10.248;2024-01-30T08:42:16;20.60;;;11.75;;
82930;SDS011;72705;53.346;10.248;2024-01-30T08:44:47;21.20;;;12.00;;
82930;SDS011;72705;53.346;10.248;2024-01-30T08:47:12;25.67;;;11.73;;
82930;SDS011;72705;53.346;10.248;2024-01-30T08:49:37;19.83;;;11.03;;
82930;SDS011;72705;53.346;10.248;2024-01-30T08:52:03;19.13;;;11.57;;
82930;SDS011;72705;53.346;10.248;2024-01-30T08:54:28;17.33;;;11.45;;
82930;SDS011;72705;53.346;10.248;2024-01-30T08:56:54;22.70;;;13.13;;
82930;SDS011;72705;53.346;10.248;2024-01-30T08:59:21;18.98;;;11.07;;
82930;SDS011;72705;53.346;10.248;2024-01-30T09:01:46;19.33;;;12.23;;
82930;SDS011;72705;53.346;10.248;2024-01-30T09:04:12;22.35;;;11.02;;
82930;SDS011;72705;53.346;10.248;2024-01-30T09:06:45;16.77;;;10.47;;
82930;SDS011;72705;53.346;10.248;2024-01-30T09:09:11;18.75;;;11.13;;
82930;SDS011;72705;53.346;10.248;2024-01-30T09:11:36;21.50;;;10.98;;
82930;SDS011;72705;53.346;10.248;2024-01-30T09:14:02;19.20;;;11.38;;
82930;SDS011;72705;53.346;10.248;2024-01-30T09:16:29;19.73;;;11.20;;
82930;SDS011;72705;53.346;10.248;2024-01-30T09:18:54;20.38;;;10.95;;
82930;SDS011;72705;53.346;10.248;2024-01-30T09:21:20;19.90;;;11.10;;
82930;SDS011;72705;53.346;10.248;2024-01-30T09:23:45;19.13;;;10.23;;
82930;SDS011;72705;53.346;10.248;2024-01-30T09:26:10;20.30;;;10.47;;
82930;SDS011;72705;53.346;10.248;2024-01-30T09:28:37;17.63;;;10.18;;
82930;SDS011;72705;53.346;10.248;2024-01-30T09:31:03;19.80;;;10.05;;
82930;SDS011;72705;53.346;10.248;2024-01-30T09:33:28;18.50;;;9.43;;
82930;SDS011;72705;53.346;10.248;2024-01-30T09:35:54;20.50;;;10.23;;
82930;SDS011;72705;53.346;10.248;2024-01-30T09:38:19;19.33;;;10.30;;
82930;SDS011;72705;53.346;10.248;2024-01-30T09:40:44;16.02;;;9.85;;
82930;SDS011;72705;53.346;10.248;2024-01-30T09:43:18;16.45;;;10.02;;
82930;SDS011;72705;53.346;10.248;2024-01-30T09:45:51;17.90;;;10.77;;
82930;SDS011;72705;53.346;10.248;2024-01-30T09:48:18;17.35;;;9.38;;
82930;SDS011;72705;53.346;10.248;2024-01-30T09:50:45;17.30;;;10.25;;
82930;SDS011;72705;53.346;10.248;2024-01-30T09:53:11;15.75;;;10.02;;
82930;SDS011;72705;53.346;10.248;2024-01-30T09:55:39;19.45;;;9.80;;
82930;SDS011;72705;53.346;10.248;2024-01-30T09:58:08;15.80;;;10.05;;
82930;SDS011;72705;53.346;10.248;2024-01-30T10:00:35;14.65;;;10.32;;
82930;SDS011;72705;53.346;10.248;2024-01-30T10:03:01;13.65;;;9.23;;
82930;SDS011;72705;53.346;10.248;2024-01-30T10:05:27;17.38;;;9.43;;
82930;SDS011;72705;53.346;10.248;2024-01-30T10:10:24;15.98;;;10.23;;
82930;SDS011;72705;53.346;10.248;2024-01-30T10:12:51;17.48;;;9.98;;
82930;SDS011;72705;53.346;10.248;2024-01-30T10:15:17;17.85;;;10.55;;
82930;SDS011;72705;53.346;10.248;2024-01-30T10:17:44;18.85;;;9.77;;
82930;SDS011;72705;53.346;10.248;2024-01-30T10:20:11;16.40;;;9.80;;
82930;SDS011;72705;53.346;10.248;2024-01-30T10:22:39;16.10;;;10.02;;
82930;SDS011;72705;53.346;10.248;2024-01-30T10:25:07;16.83;;;9.95;;
82930;SDS011;72705;53.346;10.248;2024-01-30T10:27:34;15.95;;;9.63;;
82930;SDS011;72705;53.346;10.248;2024-01-30T10:30:01;16.13;;;9.90;;
82930;SDS011;72705;53.346;10.248;2024-01-30T10:32:34;13.80;;;8.80;;
82930;SDS011;72705;53.346;10.248;2024-01-30T10:34:59;14.15;;;9.82;;
82930;SDS011;72705;53.346;10.248;2024-01-30T10:37:30;17.48;;;10.00;;
82930;SDS011;72705;53.346;10.248;2024-01-30T10:42:27;15.57;;;8.93;;
82930;SDS011;72705;53.346;10.248;2024-01-30T10:50:31;16.40;;;9.27;;
82930;SDS011;72705;53.346;10.248;2024-01-30T10:53:00;15.80;;;8.80;;
82930;SDS011;72705;53.346;10.248;2024-01-30T10:55:27;17.75;;;8.70;;
82930;SDS011;72705;53.346;10.248;2024-01-30T10:57:54;16.95;;;9.07;;
82930;SDS011;72705;53.346;10.248;2024-01-30T11:00:22;12.60;;;8.23;;
82930;SDS011;72705;53.346;10.248;2024-01-30T11:02:52;11.43;;;8.07;;
82930;SDS011;72705;53.346;10.248;2024-01-30T11:05:25;13.95;;;8.57;;
82930;SDS011;72705;53.346;10.248;2024-01-30T11:07:55;12.07;;;8.95;;
82930;SDS011;72705;53.346;10.248;2024-01-30T11:10:22;14.18;;;8.55;;
82930;SDS011;72705;53.346;10.248;2024-01-30T11:12:51;15.18;;;9.23;;
82930;SDS011;72705;53.346;10.248;2024-01-30T11:15:18;15.30;;;8.82;;
82930;SDS011;72705;53.346;10.248;2024-01-30T11:20:32;11.90;;;8.55;;
82930;SDS011;72705;53.346;10.248;2024-01-30T11:23:01;17.52;;;7.97;;
82930;SDS011;72705;53.346;10.248;2024-01-30T11:25:31;14.00;;;8.02;;
82930;SDS011;72705;53.346;10.248;2024-01-30T11:27:57;13.68;;;8.77;;
82930;SDS011;72705;53.346;10.248;2024-01-30T11:30:27;18.98;;;8.63;;
82930;SDS011;72705;53.346;10.248;2024-01-30T11:33:06;14.50;;;8.93;;
82930;SDS011;72705;53.346;10.248;2024-01-30T11:35:40;15.25;;;8.38;;
82930;SDS011;72705;53.346;10.248;2024-01-30T11:38:11;14.60;;;8.45;;
82930;SDS011;72705;53.346;10.248;2024-01-30T11:43:34;12.75;;;7.82;;
82930;SDS011;72705;53.346;10.248;2024-01-30T11:46:00;14.38;;;7.85;;
82930;SDS011;72705;53.346;10.248;2024-01-30T11:48:25;13.20;;;8.52;;
82930;SDS011;72705;53.346;10.248;2024-01-30T11:50:54;14.35;;;7.47;;
82930;SDS011;72705;53.346;10.248;2024-01-30T11:53:33;16.90;;;9.18;;
82930;SDS011;72705;53.346;10.248;2024-01-30T11:55:58;14.82;;;8.77;;
82930;SDS011;72705;53.346;10.248;2024-01-30T11:58:24;12.00;;;8.27;;
82930;SDS011;72705;53.346;10.248;2024-01-30T12:00:55;14.13;;;8.65;;
82930;SDS011;72705;53.346;10.248;2024-01-30T12:03:25;12.57;;;7.80;;
82930;SDS011;72705;53.346;10.248;2024-01-30T12:05:57;15.77;;;8.48;;
82930;SDS011;72705;53.346;10.248;2024-01-30T12:08:26;15.57;;;9.55;;
82930;SDS011;72705;53.346;10.248;2024-01-30T12:10:56;17.35;;;8.18;;
82930;SDS011;72705;53.346;10.248;2024-01-30T12:13:22;15.30;;;8.57;;
82930;SDS011;72705;53.346;10.248;2024-01-30T12:15:48;14.38;;;7.60;;
82930;SDS011;72705;53.346;10.248;2024-01-30T12:18:14;12.30;;;8.30;;
82930;SDS011;72705;53.346;10.248;2024-01-30T12:20:39;16.87;;;8.33;;
82930;SDS011;72705;53.346;10.248;2024-01-30T12:23:04;14.63;;;7.87;;
82930;SDS011;72705;53.346;10.248;2024-01-30T12:25:30;11.77;;;7.83;;
82930;SDS011;72705;53.346;10.248;2024-01-30T12:27:56;11.77;;;8.30;;
82930;SDS011;72705;53.346;10.248;2024-01-30T12:30:21;13.83;;;7.40;;
82930;SDS011;72705;53.346;10.248;2024-01-30T12:32:47;11.73;;;7.80;;
82930;SDS011;72705;53.346;10.248;2024-01-30T12:35:16;13.05;;;8.43;;
82930;SDS011;72705;53.346;10.248;2024-01-30T12:37:43;12.95;;;7.78;;
82930;SDS011;72705;53.346;10.248;2024-01-30T12:40:15;10.60;;;6.50;;
82930;SDS011;72705;53.346;10.248;2024-01-30T12:42:41;13.98;;;7.70;;
82930;SDS011;72705;53.346;10.248;2024-01-30T12:45:07;10.95;;;7.47;;
82930;SDS011;72705;53.346;10.248;2024-01-30T12:47:34;10.80;;;7.22;;
82930;SDS011;72705;53.346;10.248;2024-01-30T12:49:59;15.20;;;7.68;;
82930;SDS011;72705;53.346;10.248;2024-01-30T12:52:25;11.00;;;8.00;;
82930;SDS011;72705;53.346;10.248;2024-01-30T12:54:51;10.05;;;7.18;;
82930;SDS011;72705;53.346;10.248;2024-01-30T13:00:04;13.70;;;7.47;;
82930;SDS011;72705;53.346;10.248;2024-01-30T13:02:33;12.00;;;7.20;;
82930;SDS011;72705;53.346;10.248;2024-01-30T13:05:01;11.52;;;7.30;;
82930;SDS011;72705;53.346;10.248;2024-01-30T13:07:28;12.75;;;8.20;;
82930;SDS011;72705;53.346;10.248;2024-01-30T13:09:53;12.03;;;7.83;;
82930;SDS011;72705;53.346;10.248;2024-01-30T13:12:18;11.00;;;7.55;;
82930;SDS011;72705;53.346;10.248;2024-01-30T13:14:47;13.23;;;7.77;;
82930;SDS011;72705;53.346;10.248;2024-01-30T13:17:12;15.20;;;7.95;;
82930;SDS011;72705;53.346;10.248;2024-01-30T13:19:38;11.60;;;7.28;;
82930;SDS011;72705;53.346;10.248;2024-01-30T13:22:03;10.03;;;7.33;;
82930;SDS011;72705;53.346;10.248;2024-01-30T13:24:28;13.18;;;7.35;;
82930;SDS011;72705;53.346;10.248;2024-01-30T13:26:54;10.95;;;7.18;;
82930;SDS011;72705;53.346;10.248;2024-01-30T13:29:19;11.65;;;7.28;;
82930;SDS011;72705;53.346;10.248;2024-01-30T13:31:48;12.35;;;7.25;;
82930;SDS011;72705;53.346;10.248;2024-01-30T13:36:38;13.00;;;7.60;;
82930;SDS011;72705;53.346;10.248;2024-01-30T13:39:04;12.63;;;7.35;;
82930;SDS011;72705;53.346;10.248;2024-01-30T13:41:33;11.88;;;7.80;;
82930;SDS011;72705;53.346;10.248;2024-01-30T13:43:58;12.10;;;7.32;;
82930;SDS011;72705;53.346;10.248;2024-01-30T13:46:24;14.43;;;7.90;;
82930;SDS011;72705;53.346;10.248;2024-01-30T13:48:50;12.80;;;7.75;;
82930;SDS011;72705;53.346;10.248;2024-01-30T13:51:20;11.32;;;7.15;;
82930;SDS011;72705;53.346;10.248;2024-01-30T13:53:45;11.93;;;7.10;;
82930;SDS011;72705;53.346;10.248;2024-01-30T13:56:11;11.77;;;7.50;;
82930;SDS011;72705;53.346;10.248;2024-01-30T13:58:36;14.07;;;7.78;;
82930;SDS011;72705;53.346;10.248;2024-01-30T14:01:02;15.35;;;6.85;;
82930;SDS011;72705;53.346;10.248;2024-01-30T14:03:30;10.13;;;6.50;;
82930;SDS011;72705;53.346;10.248;2024-01-30T14:05:57;14.60;;;7.00;;
82930;SDS011;72705;53.346;10.248;2024-01-30T14:08:23;11.18;;;7.05;;
82930;SDS011;72705;53.346;10.248;2024-01-30T14:10:51;14.10;;;7.90;;
82930;SDS011;72705;53.346;10.248;2024-01-30T14:13:17;13.50;;;8.02;;
82930;SDS011;72705;53.346;10.248;2024-01-30T14:15:43;11.80;;;6.55;;
82930;SDS011;72705;53.346;10.248;2024-01-30T14:18:08;14.00;;;6.07;;
82930;SDS011;72705;53.346;10.248;2024-01-30T14:20:34;11.25;;;7.03;;
82930;SDS011;72705;53.346;10.248;2024-01-30T14:22:59;11.93;;;7.38;;
82930;SDS011;72705;53.346;10.248;2024-01-30T14:25:25;9.15;;;6.40;;
82930;SDS011;72705;53.346;10.248;2024-01-30T14:27:53;13.93;;;6.82;;
82930;SDS011;72705;53.346;10.248;2024-01-30T14:30:22;13.77;;;8.07;;
82930;SDS011;72705;53.346;10.248;2024-01-30T14:32:48;15.15;;;8.13;;
82930;SDS011;72705;53.346;10.248;2024-01-30T14:35:14;13.18;;;7.40;;
82930;SDS011;72705;53.346;10.248;2024-01-30T14:37:39;13.50;;;7.63;;
82930;SDS011;72705;53.346;10.248;2024-01-30T14:42:51;18.00;;;8.13;;
82930;SDS011;72705;53.346;10.248;2024-01-30T14:45:17;14.20;;;8.27;;
82930;SDS011;72705;53.346;10.248;2024-01-30T14:47:42;14.98;;;8.30;;
82930;SDS011;72705;53.346;10.248;2024-01-30T14:50:08;11.93;;;8.23;;
82930;SDS011;72705;53.346;10.248;2024-01-30T14:52:33;16.27;;;8.27;;
82930;SDS011;72705;53.346;10.248;2024-01-30T14:54:59;15.75;;;7.90;;
82930;SDS011;72705;53.346;10.248;2024-01-30T14:57:25;14.68;;;7.65;;
82930;SDS011;72705;53.346;10.248;2024-01-30T14:59:50;15.48;;;8.43;;
82930;SDS011;72705;53.346;10.248;2024-01-30T15:02:16;12.27;;;8.15;;
82930;SDS011;72705;53.346;10.248;2024-01-30T15:04:44;14.75;;;8.45;;
82930;SDS011;72705;53.346;10.248;2024-01-30T15:07:09;12.63;;;7.72;;